createdAt,value
2022-08-25T00:02:08.101Z,96283.41
2022-08-25T00:04:38.210Z,96286.69
2022-08-25T00:07:07.815Z,96279.16
2022-08-25T00:09:36.111Z,96287.81
2022-08-25T00:12:04.795Z,96290.88
2022-08-25T00:14:33.935Z,96280.97
2022-08-25T00:17:03.589Z,96284.25
2022-08-25T00:19:33.201Z,96284.25
2022-08-25T00:22:01.819Z,96284.53
2022-08-25T00:24:30.021Z,96280.50
2022-08-25T00:26:58.756Z,96277.00
2022-08-25T00:29:27.819Z,96282.72
2022-08-25T00:31:56.546Z,96281.13
2022-08-25T00:34:27.303Z,96281.97
2022-08-25T00:36:55.541Z,96278.47
2022-08-25T00:39:23.844Z,96280.59
2022-08-25T00:41:52.434Z,96277.66
2022-08-25T00:44:20.610Z,96280.88
2022-08-25T00:46:50.754Z,96281.97
2022-08-25T00:49:25.391Z,96268.00
2022-08-25T00:51:57.007Z,96277.19
2022-08-25T00:54:26.299Z,96273.97
2022-08-25T00:56:54.415Z,96275.94
2022-08-25T00:59:22.587Z,96268.72
2022-08-25T01:01:51.417Z,96269.59
2022-08-25T01:04:19.669Z,96270.44
2022-08-25T01:06:47.799Z,96268.63
2022-08-25T01:09:17.526Z,96262.19
2022-08-25T01:11:45.735Z,96263.28
2022-08-25T01:14:14.216Z,96264.16
2022-08-25T01:16:43.849Z,96264.72
2022-08-25T01:19:15.455Z,96261.78
2022-08-25T01:21:46.811Z,96263.75
2022-08-25T01:24:19.906Z,96254.31
2022-08-25T01:26:48.019Z,96254.91
2022-08-25T01:29:22.307Z,96253.31
2022-08-25T01:31:50.483Z,96254.97
2022-08-25T01:34:19.015Z,96256.31
2022-08-25T01:36:48.569Z,96251.81
2022-08-25T01:39:16.670Z,96249.69
2022-08-25T01:41:51.616Z,96254.53
2022-08-25T01:44:19.784Z,96252.16
2022-08-25T01:46:47.924Z,96248.94
2022-08-25T01:49:16.015Z,96254.88
2022-08-25T01:51:46.177Z,96247.69
2022-08-25T01:54:15.694Z,96242.03
2022-08-25T01:56:44.221Z,96248.00
2022-08-25T01:59:12.341Z,96242.59
2022-08-25T02:01:42.293Z,96235.59
2022-08-25T02:04:10.663Z,96250.75
2022-08-25T02:06:39.863Z,96243.47
2022-08-25T02:09:10.270Z,96242.69
2022-08-25T02:11:42.105Z,96238.69
2022-08-25T02:14:11.716Z,96240.06
2022-08-25T02:16:40.452Z,96236.56
2022-08-25T02:19:11.314Z,96236.31
2022-08-25T02:21:39.454Z,96244.72
2022-08-25T02:24:08.181Z,96234.50
2022-08-25T02:26:36.515Z,96243.94
2022-08-25T02:29:06.764Z,96233.47
2022-08-25T02:31:34.910Z,96222.97
2022-08-25T02:34:03.186Z,96226.47
2022-08-25T02:36:32.248Z,96228.63
2022-08-25T02:39:00.551Z,96229.19
2022-08-25T02:41:31.615Z,96229.47
2022-08-25T02:44:00.184Z,96228.97
2022-08-25T02:46:29.850Z,96235.72
2022-08-25T02:48:57.987Z,96228.72
2022-08-25T02:51:27.547Z,96223.34
2022-08-25T02:53:56.336Z,96220.66
2022-08-25T02:56:24.700Z,96219.03
2022-08-25T02:58:52.916Z,96222.00
2022-08-25T03:01:22.115Z,96221.78
2022-08-25T03:03:58.476Z,96228.00
2022-08-25T03:06:28.062Z,96219.41
2022-08-25T03:08:56.263Z,96219.41
2022-08-25T03:11:26.595Z,96210.81
2022-08-25T03:13:54.787Z,96215.63
2022-08-25T03:16:22.993Z,96218.09
2022-08-25T03:18:56.259Z,96221.34
2022-08-25T03:21:26.965Z,96218.13
2022-08-25T03:23:55.122Z,96211.13
2022-08-25T03:26:41.022Z,96213.81
2022-08-25T03:29:09.189Z,96207.91
2022-08-25T03:31:37.405Z,96206.59
2022-08-25T03:34:05.876Z,96205.00
2022-08-25T03:36:35.389Z,96204.75
2022-08-25T03:39:03.495Z,96205.53
2022-08-25T03:41:32.658Z,96203.41
2022-08-25T03:44:00.877Z,96203.41
2022-08-25T03:46:30.254Z,96199.41
2022-08-25T03:48:58.363Z,96202.38
2022-08-25T03:51:28.717Z,96199.16
2022-08-25T03:53:58.310Z,96197.81
2022-08-25T03:56:27.415Z,96200.00
2022-08-25T03:58:55.803Z,96196.00
2022-08-25T04:01:24.140Z,96202.44
2022-08-25T04:03:52.283Z,96201.63
2022-08-25T04:06:20.619Z,96209.72
2022-08-25T04:08:48.726Z,96203.53
2022-08-25T04:11:19.598Z,96207.78
2022-08-25T04:13:48.112Z,96212.28
2022-08-25T04:16:18.660Z,96211.47
2022-08-25T04:18:47.660Z,96215.50
2022-08-25T04:21:15.778Z,96216.31
2022-08-25T04:23:44.778Z,96213.09
2022-08-25T04:26:13.588Z,96211.78
2022-08-25T04:28:43.014Z,96219.53
2022-08-25T04:31:11.898Z,96215.28
2022-08-25T04:33:40.186Z,96220.66
2022-08-25T04:36:12.233Z,96216.84
2022-08-25T04:38:40.668Z,96217.09
2022-08-25T04:41:09.272Z,96224.56
2022-08-25T04:43:39.368Z,96220.78
2022-08-25T04:46:09.137Z,96218.84
2022-08-25T04:48:37.333Z,96212.84
2022-08-25T04:51:06.401Z,96216.06
2022-08-25T04:53:34.779Z,96209.06
2022-08-25T04:56:03.932Z,96215.53
2022-08-25T04:58:32.115Z,96212.56
2022-08-25T05:01:03.276Z,96214.72
2022-08-25T05:03:32.815Z,96205.50
2022-08-25T05:06:01.387Z,96208.38
2022-08-25T05:08:29.468Z,96200.56
2022-08-25T05:10:57.581Z,96196.44
2022-08-25T05:13:26.828Z,96189.91
2022-08-25T05:15:55.608Z,96194.19
2022-08-25T05:18:24.369Z,96193.59
2022-08-25T05:20:54.985Z,96187.88
2022-08-25T05:23:23.305Z,96195.84
2022-08-25T05:25:51.596Z,96197.03
2022-08-25T05:28:19.826Z,96197.44
2022-08-25T05:30:48.744Z,96190.84
2022-08-25T05:33:17.319Z,96188.28
2022-08-25T05:35:45.441Z,96188.16
2022-08-25T05:38:15.301Z,96189.13
2022-08-25T05:40:43.806Z,96187.38
2022-08-25T05:43:12.388Z,96185.66
2022-08-25T05:45:40.939Z,96194.13
2022-08-25T05:48:09.166Z,96191.25
2022-08-25T05:50:37.899Z,96195.41
2022-08-25T05:53:06.780Z,96198.75
2022-08-25T05:55:37.216Z,96202.38
2022-08-25T05:58:06.706Z,96202.69
2022-08-25T06:00:38.828Z,96205.75
2022-08-25T06:03:05.937Z,96198.78
2022-08-25T06:05:34.039Z,96201.44
2022-08-25T06:08:02.203Z,96196.53
2022-08-25T06:10:30.385Z,96195.13
2022-08-25T06:13:00.206Z,96194.53
2022-08-25T06:15:28.343Z,96202.63
2022-08-25T06:18:01.733Z,96203.22
2022-08-25T06:20:33.110Z,96202.69
2022-08-25T06:23:01.394Z,96207.59
2022-08-25T06:25:32.742Z,96213.41
2022-08-25T06:28:02.540Z,96202.94
2022-08-25T06:30:31.259Z,96199.84
2022-08-25T06:32:59.355Z,96195.16
2022-08-25T06:35:28.150Z,96196.31
2022-08-25T06:37:56.285Z,96195.41
2022-08-25T06:40:26.096Z,96193.91
2022-08-25T06:42:54.317Z,96199.56
2022-08-25T06:45:23.799Z,96190.06
2022-08-25T06:47:52.873Z,96193.66
2022-08-25T06:50:21.618Z,96198.66
2022-08-25T06:52:49.681Z,96198.91
2022-08-25T06:55:18.261Z,96194.03
2022-08-25T06:57:46.837Z,96185.94
2022-08-25T07:00:15.281Z,96184.25
2022-08-25T07:02:44.758Z,96190.03
2022-08-25T07:05:17.143Z,96190.34
2022-08-25T07:07:55.202Z,96190.81
2022-08-25T07:10:23.831Z,96199.16
2022-08-25T07:12:52.006Z,96198.00
2022-08-25T07:15:21.024Z,96192.19
2022-08-25T07:17:51.098Z,96182.91
2022-08-25T07:20:19.705Z,96192.63
2022-08-25T07:22:48.179Z,96187.63
2022-08-25T07:25:17.768Z,96187.84
2022-08-25T07:27:46.100Z,96185.81
2022-08-25T07:30:14.330Z,96185.59
2022-08-25T07:32:43.272Z,96190.34
2022-08-25T07:35:19.576Z,96187.66
2022-08-25T07:37:49.811Z,96188.78
2022-08-25T07:40:19.857Z,96198.81
2022-08-25T07:42:48.207Z,96197.00
2022-08-25T07:45:20.410Z,96202.34
2022-08-25T07:47:51.621Z,96192.75
2022-08-25T07:50:21.659Z,96192.19
2022-08-25T07:52:55.284Z,96184.31
2022-08-25T07:55:24.164Z,96186.72
2022-08-25T07:57:55.405Z,96180.84
2022-08-25T08:00:27.703Z,96175.78
2022-08-25T08:02:56.455Z,96180.56
2022-08-25T08:05:26.268Z,96186.59
2022-08-25T08:07:54.379Z,96182.16
2022-08-25T08:10:48.171Z,96177.00
2022-08-25T08:13:13.413Z,96176.31
2022-08-25T08:15:46.332Z,96177.94
2022-08-25T08:18:14.484Z,96175.44
2022-08-25T08:20:46.657Z,96182.59
2022-08-25T08:23:14.761Z,96182.03
2022-08-25T08:25:42.903Z,96176.47
2022-08-25T08:28:11.075Z,96182.97
2022-08-25T08:30:39.522Z,96185.09
2022-08-25T08:33:21.515Z,96183.84
2022-08-25T08:35:57.212Z,96174.66
2022-08-25T08:38:27.404Z,96169.91
2022-08-25T08:41:23.238Z,96169.91
2022-08-25T08:43:54.371Z,96171.09
2022-08-25T08:46:22.871Z,96168.09
2022-08-25T08:48:59.882Z,96160.53
2022-08-25T08:51:33.158Z,96157.53
2022-08-25T08:54:03.791Z,96166.19
2022-08-25T08:56:36.414Z,96167.72
2022-08-25T08:59:06.707Z,96157.75
2022-08-25T09:01:35.770Z,96157.69
2022-08-25T09:04:06.488Z,96162.81
2022-08-25T09:06:39.225Z,96160.81
2022-08-25T09:09:07.303Z,96152.03
2022-08-25T09:11:47.507Z,96157.97
2022-08-25T09:14:23.382Z,96158.47
2022-08-25T09:17:02.362Z,96164.41
2022-08-25T09:19:43.227Z,96157.09
2022-08-25T09:22:34.024Z,96158.34
2022-08-25T09:25:08.928Z,96152.31
2022-08-25T09:27:41.738Z,96150.34
2022-08-25T09:30:11.533Z,96145.44
2022-08-25T09:32:50.402Z,96141.44
2022-08-25T09:35:22.156Z,96141.63
2022-08-25T09:38:01.983Z,96142.34
2022-08-25T09:40:31.121Z,96146.50
2022-08-25T09:43:01.188Z,96143.34
2022-08-25T09:45:42.610Z,96141.59
2022-08-25T09:48:24.810Z,96140.72
2022-08-25T09:50:53.179Z,96130.41
2022-08-25T09:53:23.191Z,96132.66
2022-08-25T09:55:59.790Z,96124.41
2022-08-25T09:58:28.791Z,96124.09
2022-08-25T10:01:14.522Z,96121.09
2022-08-25T10:03:59.911Z,96112.16
2022-08-25T10:06:29.683Z,96111.94
2022-08-25T10:09:01.010Z,96111.53
2022-08-25T10:11:34.797Z,96113.97
2022-08-25T10:14:04.776Z,96105.50
2022-08-25T10:16:36.165Z,96099.09
2022-08-25T10:19:10.030Z,96096.06
2022-08-25T10:21:39.095Z,96095.09
2022-08-25T10:24:08.839Z,96106.78
2022-08-25T10:26:48.811Z,96098.47
2022-08-25T10:29:26.797Z,96090.56
2022-08-25T10:31:57.815Z,96084.88
2022-08-25T10:34:35.812Z,96091.63
2022-08-25T10:37:09.561Z,96086.00
2022-08-25T10:39:42.277Z,96080.06
2022-08-25T10:42:27.211Z,96088.81
2022-08-25T10:45:22.285Z,96080.78
2022-08-25T10:48:00.559Z,96081.41
2022-08-25T10:50:30.528Z,96079.47
2022-08-25T10:53:19.419Z,96073.47
2022-08-25T10:55:54.478Z,96065.09
2022-08-25T10:58:25.793Z,96069.81
2022-08-25T11:01:02.918Z,96079.75
2022-08-25T11:03:44.631Z,96071.28
2022-08-25T11:06:15.285Z,96063.00
2022-08-25T11:08:44.989Z,96058.84
2022-08-25T11:11:21.825Z,96054.84
2022-08-25T11:13:52.976Z,96051.97
2022-08-25T11:16:50.154Z,96050.56
2022-08-25T11:19:24.089Z,96043.53
2022-08-25T11:21:55.210Z,96047.97
2022-08-25T11:24:38.265Z,96043.03
2022-08-25T11:27:13.770Z,96047.78
2022-08-25T11:29:41.957Z,96046.63
2022-08-25T11:32:10.205Z,96047.66
2022-08-25T11:34:43.733Z,96040.47
2022-08-25T11:37:15.872Z,96036.44
2022-08-25T11:40:17.363Z,96040.84
2022-08-25T11:43:08.080Z,96040.53
2022-08-25T11:45:55.084Z,96035.59
2022-08-25T11:48:30.725Z,96033.22
2022-08-25T11:51:01.678Z,96041.47
2022-08-25T11:53:30.767Z,96034.66
2022-08-25T11:56:02.568Z,96031.53
2022-08-25T11:58:46.453Z,96028.41
2022-08-25T12:01:47.612Z,96035.56
2022-08-25T12:04:17.378Z,96028.41
2022-08-25T12:07:17.948Z,96027.41
2022-08-25T12:10:22.734Z,96027.41
2022-08-25T12:13:01.885Z,96028.75
2022-08-25T12:15:51.004Z,96035.28
2022-08-25T12:18:46.099Z,96032.69
2022-08-25T12:21:16.508Z,96011.97
2022-08-25T12:23:45.508Z,96026.22
2022-08-25T12:26:22.078Z,96016.41
2022-08-25T12:29:07.567Z,96011.31
2022-08-25T12:32:13.613Z,96017.84
2022-08-25T12:34:56.073Z,96011.00
2022-08-25T12:37:24.992Z,96011.78
2022-08-25T12:39:59.320Z,96005.06
2022-08-25T12:42:31.367Z,96001.44
2022-08-25T12:45:37.359Z,96008.06
2022-08-25T12:48:43.825Z,96011.41
2022-08-25T12:51:17.694Z,95999.63
2022-08-25T12:53:48.129Z,96000.31
2022-08-25T12:56:24.128Z,96002.28
2022-08-25T12:59:01.022Z,96001.94
2022-08-25T13:01:36.308Z,95993.78
2022-08-25T13:04:31.964Z,95987.09
2022-08-25T13:07:06.787Z,95981.75
2022-08-25T13:10:05.517Z,95984.13
2022-08-25T13:12:35.431Z,95971.28
2022-08-25T13:15:03.856Z,95968.47
2022-08-25T13:17:34.326Z,95970.59
2022-08-25T13:20:18.307Z,95968.69
2022-08-25T13:22:48.671Z,95966.47
2022-08-25T13:25:18.326Z,95977.69
2022-08-25T13:27:52.593Z,95974.22
2022-08-25T13:30:24.907Z,95965.97
2022-08-25T13:32:53.011Z,95972.25
2022-08-25T13:35:26.536Z,95970.78
2022-08-25T13:38:16.953Z,95972.41
2022-08-25T13:40:45.125Z,95963.50
2022-08-25T13:43:14.948Z,95967.56
2022-08-25T13:45:44.894Z,95957.84
2022-08-25T13:48:20.944Z,95960.44
2022-08-25T13:50:52.996Z,95957.94
2022-08-25T13:53:23.873Z,95961.03
2022-08-25T13:55:53.311Z,95947.94
2022-08-25T13:58:24.919Z,95947.91
2022-08-25T14:01:22.214Z,95948.28
2022-08-25T14:04:22.488Z,95941.56
2022-08-25T14:07:19.508Z,95939.09
2022-08-25T14:09:50.206Z,95943.31
2022-08-25T14:12:29.688Z,95937.41
2022-08-25T14:15:02.974Z,95931.97
2022-08-25T14:17:39.851Z,95933.44
2022-08-25T14:20:17.423Z,95927.53
2022-08-25T14:22:46.993Z,95926.81
2022-08-25T14:25:15.077Z,95918.19
2022-08-25T14:28:06.732Z,95924.53
2022-08-25T14:30:34.409Z,95918.50
2022-08-25T14:33:02.511Z,95911.00
2022-08-25T14:35:30.690Z,95911.63
2022-08-25T14:38:09.987Z,95906.69
2022-08-25T14:40:39.134Z,95909.66
2022-08-25T14:43:09.576Z,95908.16
2022-08-25T14:45:38.729Z,95898.78
2022-08-25T14:48:10.874Z,95903.47
2022-08-25T14:50:41.905Z,95906.53
2022-08-25T14:53:12.313Z,95902.22
2022-08-25T14:55:40.349Z,95902.22
2022-08-25T14:58:08.941Z,95901.09
2022-08-25T15:00:38.775Z,95903.47
2022-08-25T15:03:07.052Z,95898.81
2022-08-25T15:05:35.283Z,95887.88
2022-08-25T15:08:21.128Z,95885.19
2022-08-25T15:10:50.800Z,95885.97
2022-08-25T15:13:19.361Z,95885.28
2022-08-25T15:15:52.450Z,95885.38
2022-08-25T15:18:21.632Z,95875.88
2022-08-25T15:20:50.313Z,95872.75
2022-08-25T15:23:26.367Z,95867.97
2022-08-25T15:26:07.189Z,95863.25
2022-08-25T15:28:39.076Z,95862.00
2022-08-25T15:31:07.318Z,95863.59
2022-08-25T15:33:36.478Z,95869.41
2022-08-25T15:36:05.023Z,95865.44
2022-08-25T15:38:33.208Z,95863.44
2022-08-25T15:41:03.137Z,95870.50
2022-08-25T15:43:31.312Z,95857.50
2022-08-25T15:45:59.622Z,95855.22
2022-08-25T15:48:27.968Z,95862.69
2022-08-25T15:50:56.889Z,95849.66
2022-08-25T15:53:26.165Z,95860.31
2022-08-25T15:55:57.584Z,95853.16
2022-08-25T15:58:30.289Z,95854.28
2022-08-25T16:00:58.580Z,95853.34
2022-08-25T16:03:28.160Z,95852.06
2022-08-25T16:05:56.882Z,95846.88
2022-08-25T16:08:24.970Z,95842.00
2022-08-25T16:10:59.364Z,95841.88
2022-08-25T16:13:29.244Z,95838.50
2022-08-25T16:16:01.002Z,95842.22
2022-08-25T16:18:30.108Z,95847.56
2022-08-25T16:20:59.677Z,95838.44
2022-08-25T16:23:28.368Z,95842.97
2022-08-25T16:25:56.541Z,95826.00
2022-08-25T16:28:25.914Z,95832.19
2022-08-25T16:30:56.123Z,95831.41
2022-08-25T16:33:24.378Z,95837.56
2022-08-25T16:35:54.107Z,95838.34
2022-08-25T16:38:26.673Z,95834.81
2022-08-25T16:40:56.986Z,95832.81
2022-08-25T16:43:25.639Z,95841.03
2022-08-25T16:46:00.291Z,95838.28
2022-08-25T16:48:29.472Z,95841.78
2022-08-25T16:50:58.066Z,95833.13
2022-08-25T16:53:43.801Z,95839.34
2022-08-25T16:56:19.138Z,95834.22
2022-08-25T16:58:47.343Z,95840.03
2022-08-25T17:01:22.848Z,95835.22
2022-08-25T17:03:52.382Z,95831.22
2022-08-25T17:06:20.661Z,95838.13
2022-08-25T17:08:50.895Z,95835.19
2022-08-25T17:11:20.328Z,95831.53
2022-08-25T17:13:50.122Z,95832.94
2022-08-25T17:16:18.456Z,95834.06
2022-08-25T17:18:49.993Z,95838.63
2022-08-25T17:21:23.796Z,95830.69
2022-08-25T17:23:53.073Z,95829.44
2022-08-25T17:26:27.896Z,95835.16
2022-08-25T17:28:57.284Z,95833.00
2022-08-25T17:31:27.656Z,95838.75
2022-08-25T17:33:57.982Z,95834.28
2022-08-25T17:36:27.187Z,95831.44
2022-08-25T17:38:56.780Z,95836.38
2022-08-25T17:41:25.367Z,95836.66
2022-08-25T17:43:53.674Z,95832.63
2022-08-25T17:46:22.164Z,95836.31
2022-08-25T17:48:50.265Z,95834.22
2022-08-25T17:51:20.420Z,95826.97
2022-08-25T17:53:49.713Z,95823.66
2022-08-25T17:56:19.213Z,95829.28
2022-08-25T17:58:48.287Z,95841.09
2022-08-25T18:01:17.088Z,95840.06
2022-08-25T18:03:45.233Z,95836.63
2022-08-25T18:06:15.087Z,95833.28
2022-08-25T18:08:52.287Z,95833.91
2022-08-25T18:11:23.708Z,95839.22
2022-08-25T18:13:53.797Z,95838.66
2022-08-25T18:16:22.029Z,95843.97
2022-08-25T18:18:50.209Z,95847.31
2022-08-25T18:21:20.390Z,95838.88
2022-08-25T18:23:49.997Z,95848.94
2022-08-25T18:26:24.789Z,95849.19
2022-08-25T18:28:53.791Z,95854.47
2022-08-25T18:31:21.978Z,95857.91
2022-08-25T18:33:51.004Z,95861.34
2022-08-25T18:36:21.330Z,95856.91
2022-08-25T18:39:08.769Z,95849.78
2022-08-25T18:41:38.157Z,95850.38
2022-08-25T18:44:06.575Z,95855.75
2022-08-25T18:46:34.891Z,95864.63
2022-08-25T18:49:04.575Z,95861.38
2022-08-25T18:51:33.374Z,95856.13
2022-08-25T18:54:03.500Z,95856.28
2022-08-25T18:56:31.840Z,95851.28
2022-08-25T18:59:01.031Z,95864.28
2022-08-25T19:01:29.376Z,95854.28
2022-08-25T19:03:57.664Z,95853.97
2022-08-25T19:06:26.123Z,95856.16
2022-08-25T19:08:54.556Z,95862.50
2022-08-25T19:11:24.072Z,95865.03
2022-08-25T19:13:52.509Z,95852.31
2022-08-25T19:16:32.097Z,95851.66
2022-08-25T19:19:02.524Z,95851.75
2022-08-25T19:21:31.905Z,95848.34
2022-08-25T19:24:01.034Z,95861.75
2022-08-25T19:26:34.379Z,95851.38
2022-08-25T19:29:02.558Z,95857.06
2022-08-25T19:31:33.345Z,95851.50
2022-08-25T19:34:02.144Z,95851.41
2022-08-25T19:36:31.058Z,95854.47
2022-08-25T19:39:01.218Z,95856.84
2022-08-25T19:41:29.701Z,95848.22
2022-08-25T19:44:00.364Z,95855.13
2022-08-25T19:46:32.231Z,95848.75
2022-08-25T19:49:06.869Z,95856.03
2022-08-25T19:51:36.784Z,95861.34
2022-08-25T19:54:05.681Z,95861.25
2022-08-25T19:56:35.186Z,95860.31
2022-08-25T19:59:06.346Z,95856.34
2022-08-25T20:01:36.230Z,95866.75
2022-08-25T20:04:05.195Z,95860.88
2022-08-25T20:06:33.314Z,95866.66
2022-08-25T20:09:01.570Z,95866.00
2022-08-25T20:11:29.829Z,95863.69
2022-08-25T20:14:03.124Z,95859.84
2022-08-25T20:16:33.744Z,95860.19
2022-08-25T20:19:02.035Z,95865.53
2022-08-25T20:21:34.005Z,95868.13
2022-08-25T20:24:24.493Z,95860.28
2022-08-25T20:26:52.864Z,95863.34
2022-08-25T20:29:21.396Z,95869.25
2022-08-25T20:31:53.235Z,95870.38
2022-08-25T20:34:21.483Z,95872.66
2022-08-25T20:36:50.479Z,95871.41
2022-08-25T20:39:20.253Z,95866.63
2022-08-25T20:41:48.679Z,95869.63
2022-08-25T20:44:17.333Z,95869.97
2022-08-25T20:46:45.549Z,95866.69
2022-08-25T20:49:15.620Z,95875.97
2022-08-25T20:51:44.102Z,95876.75
2022-08-25T20:54:14.199Z,95862.59
2022-08-25T20:56:43.037Z,95869.16
2022-08-25T20:59:11.657Z,95875.59
2022-08-25T21:01:41.317Z,95874.31
2022-08-25T21:04:11.167Z,95870.38
2022-08-25T21:06:44.328Z,95869.91
2022-08-25T21:09:16.118Z,95874.75
2022-08-25T21:11:45.085Z,95876.53
2022-08-25T21:14:13.719Z,95876.41
2022-08-25T21:16:46.398Z,95871.44
2022-08-25T21:19:16.032Z,95872.88
2022-08-25T21:21:45.844Z,95880.47
2022-08-25T21:24:14.827Z,95879.88
2022-08-25T21:26:48.562Z,95882.78
2022-08-25T21:29:17.275Z,95871.66
2022-08-25T21:31:45.366Z,95874.09
2022-08-25T21:34:13.695Z,95862.94
2022-08-25T21:36:42.019Z,95868.09
2022-08-25T21:39:11.567Z,95862.72
2022-08-25T21:41:40.405Z,95870.13
2022-08-25T21:44:08.534Z,95869.19
2022-08-25T21:46:36.824Z,95872.41
2022-08-25T21:49:06.113Z,95869.91
2022-08-25T21:51:35.791Z,95874.06
2022-08-25T21:54:12.366Z,95866.75
2022-08-25T21:56:43.232Z,95866.94
2022-08-25T21:59:12.815Z,95867.25
2022-08-25T22:01:41.181Z,95868.25
2022-08-25T22:04:11.334Z,95859.81
2022-08-25T22:06:39.724Z,95856.78
2022-08-25T22:09:08.682Z,95866.06
2022-08-25T22:11:36.804Z,95856.47
2022-08-25T22:14:07.080Z,95856.31
2022-08-25T22:16:35.341Z,95855.19
2022-08-25T22:19:03.803Z,95860.03
2022-08-25T22:21:32.731Z,95853.19
2022-08-25T22:24:00.835Z,95850.28
2022-08-25T22:26:30.180Z,95851.72
2022-08-25T22:28:59.143Z,95851.59
2022-08-25T22:31:29.552Z,95851.75
2022-08-25T22:33:58.560Z,95842.69
2022-08-25T22:36:29.353Z,95845.72
2022-08-25T22:38:57.599Z,95844.25
2022-08-25T22:41:28.311Z,95846.97
2022-08-25T22:43:56.742Z,95838.03
2022-08-25T22:46:27.937Z,95833.59
2022-08-25T22:48:57.575Z,95840.47
2022-08-25T22:51:28.514Z,95838.88
2022-08-25T22:53:56.581Z,95843.84
2022-08-25T22:56:32.098Z,95833.94
2022-08-25T22:59:00.607Z,95831.06
2022-08-25T23:01:29.054Z,95833.16
2022-08-25T23:03:59.411Z,95840.84
2022-08-25T23:06:28.007Z,95834.13
2022-08-25T23:08:56.317Z,95831.59
2022-08-25T23:11:24.785Z,95832.22
2022-08-25T23:13:55.296Z,95830.50
2022-08-25T23:16:23.504Z,95831.63
2022-08-25T23:18:52.528Z,95829.06
2022-08-25T23:21:41.327Z,95822.53
2022-08-25T23:24:11.086Z,95823.97
2022-08-25T23:26:42.433Z,95826.84
2022-08-25T23:29:18.039Z,95823.50
2022-08-25T23:31:47.910Z,95816.66
2022-08-25T23:34:16.246Z,95811.09
2022-08-25T23:36:45.690Z,95813.16
2022-08-25T23:39:14.538Z,95809.78
2022-08-25T23:41:42.694Z,95809.63
2022-08-25T23:44:11.921Z,95810.72
2022-08-25T23:46:45.352Z,95814.41
2022-08-25T23:49:18.106Z,95817.28
2022-08-25T23:51:48.918Z,95815.22
2022-08-25T23:54:17.283Z,95805.63
2022-08-25T23:56:51.675Z,95805.63
2022-08-25T23:59:24.155Z,95803.25
